Home   Weather   Slovakia   Piešťany   Past weeks
Flag for Slovakia

Past Weather in Piešťany, Slovakia — Yesterday and Last 2 Weeks

Currently: 28 °F. Sunny. (Weather station: Piestany, Slovakia). See more current weather

Past Weather in Piešťany — Graph

°F

Piešťany Temperature Yesterday

Maximum temperature yesterday: 39 °F (at 2:30 pm)
Minimum temperature yesterday: 16 °F (at 3:30 am)
Average temperature yesterday: 24 °F

High & Low Weather Summary for the Past Weeks

 TemperatureHumidityPressure
High43 °F (Feb 1, 11:00 am)100% (Jan 25, 9:30 pm)30.80 "Hg (Jan 25, 9:30 pm)
Low14 °F (Feb 7, 2:30 am)45% (Feb 8, 2:30 pm)29.86 "Hg (Jan 30, 2:30 pm)
Average31 °F78%30.26 "Hg
* Reported Jan 25 10:00 am — Feb 9 10:00 am, Piešťany. Weather by CustomWeather, © 2023

Note: Actual official high and low records may vary slightly from our data, if they occured in-between our weather recording intervals... More about our weather records

Piešťany Weather History for the Previous 24 Hours

Scroll right to see more
 ConditionsComfort  
Time TempWeatherWind HumidityBarometerVisibility
10:00 am
Thu, Feb 9
27 °FSunny.6 mph80%30.72 "Hg10 mi
9:30 am25 °FSunny.6 mph80%30.72 "Hg10 mi
9:00 am21 °FSunny.6 mph86%30.72 "Hg10 mi
8:30 am19 °FSunny.5 mph86%30.72 "Hg10 mi
8:00 am18 °FSunny.7 mph86%30.72 "Hg10 mi
7:00 am14 °FClear.6 mph85%30.72 "Hg10 mi
6:30 am16 °FClear.6 mph86%30.72 "Hg10 mi
6:00 am16 °FPassing clouds.5 mph86%30.72 "HgN/A
5:30 am16 °FCold.6 mph86%30.72 "HgN/A
5:00 am18 °FCold.7 mph86%30.72 "HgN/A
4:30 am18 °FCold.8 mph93%30.74 "HgN/A
4:00 am18 °FCold.8 mph86%30.72 "HgN/A
3:30 am18 °FCold.7 mph86%30.74 "HgN/A
3:00 am18 °FCold.9 mph86%30.74 "HgN/A
2:30 am18 °FCold.7 mph86%30.74 "HgN/A
2:00 am18 °FCold.3 mph86%30.74 "HgN/A
12:30 am18 °FCold.6 mph86%30.77 "HgN/A
12:00 am19 °FCold.5 mph79%30.77 "HgN/A
11:00 pm
Wed, Feb 8
21 °FCold.7 mph86%30.77 "HgN/A
10:30 pm21 °FCold.5 mph86%30.77 "HgN/A
10:00 pm19 °FCold.2 mph86%30.77 "HgN/A
9:30 pm21 °FCold.6 mph80%30.77 "HgN/A
9:00 pm21 °FClear.6 mph86%30.77 "Hg10 mi
8:30 pm21 °FClear.5 mph86%30.77 "Hg10 mi
8:00 pm25 °FClear.5 mph80%30.77 "Hg10 mi
7:00 pm27 °FClear.2 mph80%30.77 "Hg10 mi
6:30 pm27 °FClear.3 mph74%30.77 "Hg10 mi
6:00 pm28 °FClear.2 mph69%30.77 "Hg10 mi
5:00 pm34 °FClear.2 mph56%30.77 "Hg10 mi
4:30 pm36 °FSunny.5 mph52%30.74 "Hg10 mi
4:00 pm37 °FPassing clouds.5 mph48%30.74 "HgN/A
3:00 pm37 °FSunny.3 mph48%30.74 "Hg10 mi
2:30 pm39 °FSunny.2 mph45%30.77 "Hg10 mi
2:00 pm37 °FSunny.3 mph48%30.77 "Hg10 mi
1:00 pm36 °FPassing clouds.3 mph52%30.77 "HgN/A
12:30 pm34 °FPassing clouds.5 mph60%30.80 "HgN/A
12:00 pm30 °FPassing clouds.5 mph69%30.80 "HgN/A
11:00 am27 °FPartly sunny.6 mph80%30.80 "HgN/A
Weather by CustomWeather, © 2023

See weather overview